LFPO 280930Z 24007KT 190V290 9999 FEW020TCU BKN027 22/14 Q0999 NOSIG

ElémentsDécodage
LFPO Station météo située sur l'aérodrome de PARIS Orly
280930Z émis le 28 du mois à 09h30 UTC
24007KT vent du 240°, 07 noeuds
190V290 vent de direction variable entre 190° et 290°
9999 visibilité horizontale supérieure à 10 Km
FEW020TCU nuages rares (1/8 à 2/8) à 2000 pieds
 présence de cumulus congestus
BKN027 nuages morcelés (5/8 à 7/8) à 2700 pieds
22/14 température 22°C, point de rosée 14°C
 soit une humidité relative de 61%
Q0999 la pression au niveau de la mer (QNH) est de 999 hPa
NOSIG Pas de changement significatif prévu au cours des deux heures suivant l'heure de l'observation